Aérodrome :
LOGIN :

S'inscrire | Disclaimer

   EN    FR    IT 

 










Légende :    VFR   VFR Marginal   IFR   IFR Intensif   IFR Très Intensif
Visi : 
Plafond : 
>= 8 km
>= 3000ft
5 à 8 km
1000 à 3000 ft
1500m à 5 km
500 à 1000 ft
800 à 1500m
200 à 500 ft
< 800m
< 200 ft
Symboles :   Orages  Brouillard  Fortes neiges  Fortes précipitations  Vent > 20 kt
SIGMETs :   Divers  Orages  Givrage  Turbulence  Onde Orograph.  Cendres Volcan.






- Altitude de l'aérodrome : 119 ft
- Code IATA : WAT


EIWF - Waterford

DERNIER METAR :
  • 011200Z 02004KT 340V070 9999 BKN036 08/01 Q1027

METARs EXPIRÉS :
  • 011130Z 01005KT 330V050 9999 BKN038 08/00 Q1027
  • 011100Z 02004KT 320V060 9999 SCT035 BKN042 08/01 Q1027
  • 011030Z 36007KT 320V040 9999 FEW032 BKN040 08/02 Q1028
  • 011000Z 01005KT 320V100 9999 BKN039 08/02 Q1028
  • 010930Z 03005KT 360V070 9999 BKN040 07/02 Q1028

TAF TAF EIWF
Valide du 01 à 12h jusqu'au 01 à 21h UTC


011100Z 0112/0121 02010KT 9999 SCT025 BKN040
BECMG 0118/0120 33008KT
ATIS : +353 51 877 000



MET'MAP, la Météo Aéronautique d'un coup d'oeil ! - Copyright ORBIFLY Décembre 2007 - Disclaimer

ORBIFLY MET'MAP TEAM :

Programmation & Développement : Alexandra Zaïnal
Sur une idée originale de : Baudouin d'Aumeries
Assistance à la programmation : Marc-Olivier Méhu
Soutien technique & logistique : Manuel Goepfert

Contact : metmap@orbifly.com




SOURCES & CREDITS :

   NOAA